sensor_id;sensor_type;location;lat;lon;timestamp;P1;durP1;ratioP1;P2;durP2;ratioP2
74293;SDS011;64044;59.904;10.738;2023-08-31T00:00:33;3.92;;;1.80;;
74293;SDS011;64044;59.904;10.738;2023-08-31T00:03:00;3.78;;;1.40;;
74293;SDS011;64044;59.904;10.738;2023-08-31T00:05:27;3.72;;;1.80;;
74293;SDS011;64044;59.904;10.738;2023-08-31T00:07:55;1.90;;;1.70;;
74293;SDS011;64044;59.904;10.738;2023-08-31T00:10:21;3.58;;;1.90;;
74293;SDS011;64044;59.904;10.738;2023-08-31T00:12:48;4.93;;;1.95;;
74293;SDS011;64044;59.904;10.738;2023-08-31T00:15:14;2.65;;;1.85;;
74293;SDS011;64044;59.904;10.738;2023-08-31T00:17:40;5.22;;;2.00;;
74293;SDS011;64044;59.904;10.738;2023-08-31T00:20:06;1.90;;;1.70;;
74293;SDS011;64044;59.904;10.738;2023-08-31T00:22:36;3.95;;;2.03;;
74293;SDS011;64044;59.904;10.738;2023-08-31T00:25:03;4.72;;;1.63;;
74293;SDS011;64044;59.904;10.738;2023-08-31T00:27:31;2.83;;;1.95;;
74293;SDS011;64044;59.904;10.738;2023-08-31T00:29:56;2.53;;;2.00;;
74293;SDS011;64044;59.904;10.738;2023-08-31T00:32:23;5.88;;;2.08;;
74293;SDS011;64044;59.904;10.738;2023-08-31T00:34:49;6.10;;;1.80;;
74293;SDS011;64044;59.904;10.738;2023-08-31T00:37:15;5.38;;;1.80;;
74293;SDS011;64044;59.904;10.738;2023-08-31T00:39:42;2.55;;;1.58;;
74293;SDS011;64044;59.904;10.738;2023-08-31T00:42:08;4.00;;;1.83;;
74293;SDS011;64044;59.904;10.738;2023-08-31T00:44:35;5.93;;;1.88;;
74293;SDS011;64044;59.904;10.738;2023-08-31T00:47:00;5.05;;;2.00;;
74293;SDS011;64044;59.904;10.738;2023-08-31T00:49:29;4.95;;;2.55;;
74293;SDS011;64044;59.904;10.738;2023-08-31T00:51:55;7.90;;;3.00;;
74293;SDS011;64044;59.904;10.738;2023-08-31T00:54:22;8.90;;;2.90;;
74293;SDS011;64044;59.904;10.738;2023-08-31T00:56:52;4.55;;;2.28;;
74293;SDS011;64044;59.904;10.738;2023-08-31T00:59:19;4.13;;;2.20;;
74293;SDS011;64044;59.904;10.738;2023-08-31T01:04:32;3.78;;;2.28;;
74293;SDS011;64044;59.904;10.738;2023-08-31T01:12:25;3.45;;;1.95;;
74293;SDS011;64044;59.904;10.738;2023-08-31T01:15:02;3.65;;;2.10;;
74293;SDS011;64044;59.904;10.738;2023-08-31T01:17:33;3.20;;;1.77;;
74293;SDS011;64044;59.904;10.738;2023-08-31T01:20:09;3.13;;;1.95;;
74293;SDS011;64044;59.904;10.738;2023-08-31T01:25:08;3.30;;;1.60;;
74293;SDS011;64044;59.904;10.738;2023-08-31T01:27:35;4.80;;;1.88;;
74293;SDS011;64044;59.904;10.738;2023-08-31T01:30:02;4.85;;;2.00;;
74293;SDS011;64044;59.904;10.738;2023-08-31T01:32:29;3.97;;;1.80;;
74293;SDS011;64044;59.904;10.738;2023-08-31T01:34:55;2.10;;;1.58;;
74293;SDS011;64044;59.904;10.738;2023-08-31T01:37:47;2.47;;;1.60;;
74293;SDS011;64044;59.904;10.738;2023-08-31T01:43:22;1.67;;;1.52;;
74293;SDS011;64044;59.904;10.738;2023-08-31T01:45:48;3.92;;;1.60;;
74293;SDS011;64044;59.904;10.738;2023-08-31T01:48:14;2.92;;;1.70;;
74293;SDS011;64044;59.904;10.738;2023-08-31T01:50:40;4.30;;;1.70;;
74293;SDS011;64044;59.904;10.738;2023-08-31T01:53:06;6.38;;;2.17;;
74293;SDS011;64044;59.904;10.738;2023-08-31T01:55:32;2.47;;;1.67;;
74293;SDS011;64044;59.904;10.738;2023-08-31T01:57:58;2.90;;;1.65;;
74293;SDS011;64044;59.904;10.738;2023-08-31T02:00:24;3.22;;;1.30;;
74293;SDS011;64044;59.904;10.738;2023-08-31T02:02:51;4.45;;;1.60;;
74293;SDS011;64044;59.904;10.738;2023-08-31T02:05:17;4.63;;;1.83;;
74293;SDS011;64044;59.904;10.738;2023-08-31T02:07:42;3.55;;;1.75;;
74293;SDS011;64044;59.904;10.738;2023-08-31T02:10:08;2.17;;;1.42;;
74293;SDS011;64044;59.904;10.738;2023-08-31T02:12:34;2.50;;;1.90;;
74293;SDS011;64044;59.904;10.738;2023-08-31T02:15:04;3.67;;;1.65;;
74293;SDS011;64044;59.904;10.738;2023-08-31T02:17:30;6.05;;;2.55;;
74293;SDS011;64044;59.904;10.738;2023-08-31T02:19:56;8.75;;;1.80;;
74293;SDS011;64044;59.904;10.738;2023-08-31T02:22:23;5.18;;;1.50;;
74293;SDS011;64044;59.904;10.738;2023-08-31T02:24:48;3.05;;;1.50;;
74293;SDS011;64044;59.904;10.738;2023-08-31T02:27:14;2.70;;;1.70;;
74293;SDS011;64044;59.904;10.738;2023-08-31T02:29:40;2.90;;;1.70;;
74293;SDS011;64044;59.904;10.738;2023-08-31T02:32:05;1.80;;;1.58;;
74293;SDS011;64044;59.904;10.738;2023-08-31T02:34:32;5.47;;;1.55;;
74293;SDS011;64044;59.904;10.738;2023-08-31T02:36:57;2.20;;;1.70;;
74293;SDS011;64044;59.904;10.738;2023-08-31T02:39:23;2.78;;;1.70;;
74293;SDS011;64044;59.904;10.738;2023-08-31T02:41:49;4.85;;;1.75;;
74293;SDS011;64044;59.904;10.738;2023-08-31T02:44:15;1.88;;;1.30;;
74293;SDS011;64044;59.904;10.738;2023-08-31T02:46:40;2.75;;;1.90;;
74293;SDS011;64044;59.904;10.738;2023-08-31T02:49:06;2.33;;;1.83;;
74293;SDS011;64044;59.904;10.738;2023-08-31T02:51:32;2.60;;;1.42;;
74293;SDS011;64044;59.904;10.738;2023-08-31T02:53:57;2.40;;;1.50;;
74293;SDS011;64044;59.904;10.738;2023-08-31T02:56:23;1.75;;;1.45;;
74293;SDS011;64044;59.904;10.738;2023-08-31T02:58:49;2.80;;;1.25;;
74293;SDS011;64044;59.904;10.738;2023-08-31T03:01:14;4.95;;;1.73;;
74293;SDS011;64044;59.904;10.738;2023-08-31T03:03:40;2.78;;;1.65;;
74293;SDS011;64044;59.904;10.738;2023-08-31T03:06:07;4.13;;;1.65;;
74293;SDS011;64044;59.904;10.738;2023-08-31T03:08:34;4.75;;;1.70;;
74293;SDS011;64044;59.904;10.738;2023-08-31T03:11:01;3.60;;;2.00;;
74293;SDS011;64044;59.904;10.738;2023-08-31T03:13:28;2.53;;;1.63;;
74293;SDS011;64044;59.904;10.738;2023-08-31T03:15:54;1.80;;;1.38;;
74293;SDS011;64044;59.904;10.738;2023-08-31T03:18:21;1.63;;;1.40;;
74293;SDS011;64044;59.904;10.738;2023-08-31T03:20:47;3.88;;;1.48;;
74293;SDS011;64044;59.904;10.738;2023-08-31T03:23:13;2.22;;;1.42;;
74293;SDS011;64044;59.904;10.738;2023-08-31T03:25:39;2.55;;;1.30;;
74293;SDS011;64044;59.904;10.738;2023-08-31T03:28:05;1.63;;;1.20;;
74293;SDS011;64044;59.904;10.738;2023-08-31T03:30:31;2.58;;;1.42;;
74293;SDS011;64044;59.904;10.738;2023-08-31T03:32:56;2.50;;;1.40;;
74293;SDS011;64044;59.904;10.738;2023-08-31T03:35:22;2.60;;;1.30;;
74293;SDS011;64044;59.904;10.738;2023-08-31T03:37:51;4.57;;;1.70;;
74293;SDS011;64044;59.904;10.738;2023-08-31T03:40:18;1.60;;;1.30;;
74293;SDS011;64044;59.904;10.738;2023-08-31T03:42:44;1.65;;;1.40;;
74293;SDS011;64044;59.904;10.738;2023-08-31T03:45:11;2.10;;;1.65;;
74293;SDS011;64044;59.904;10.738;2023-08-31T03:47:37;2.03;;;1.23;;
74293;SDS011;64044;59.904;10.738;2023-08-31T03:50:03;2.90;;;1.40;;
74293;SDS011;64044;59.904;10.738;2023-08-31T03:52:29;2.47;;;1.42;;
74293;SDS011;64044;59.904;10.738;2023-08-31T03:54:54;4.65;;;1.90;;
74293;SDS011;64044;59.904;10.738;2023-08-31T03:57:20;3.47;;;1.75;;
74293;SDS011;64044;59.904;10.738;2023-08-31T03:59:46;2.25;;;1.38;;
74293;SDS011;64044;59.904;10.738;2023-08-31T04:02:12;3.10;;;1.60;;
74293;SDS011;64044;59.904;10.738;2023-08-31T04:04:38;1.88;;;1.50;;
74293;SDS011;64044;59.904;10.738;2023-08-31T04:07:04;2.58;;;1.52;;
74293;SDS011;64044;59.904;10.738;2023-08-31T04:09:30;2.15;;;1.35;;
74293;SDS011;64044;59.904;10.738;2023-08-31T04:11:56;2.63;;;1.30;;
74293;SDS011;64044;59.904;10.738;2023-08-31T04:14:21;4.13;;;1.40;;
74293;SDS011;64044;59.904;10.738;2023-08-31T04:16:47;2.53;;;1.48;;
74293;SDS011;64044;59.904;10.738;2023-08-31T04:19:15;3.00;;;1.90;;
74293;SDS011;64044;59.904;10.738;2023-08-31T04:21:42;5.85;;;1.65;;
74293;SDS011;64044;59.904;10.738;2023-08-31T04:24:08;3.25;;;1.48;;
74293;SDS011;64044;59.904;10.738;2023-08-31T04:26:34;1.73;;;1.50;;
74293;SDS011;64044;59.904;10.738;2023-08-31T04:28:59;1.60;;;1.50;;
74293;SDS011;64044;59.904;10.738;2023-08-31T04:31:26;2.85;;;1.73;;
74293;SDS011;64044;59.904;10.738;2023-08-31T04:33:52;2.55;;;1.77;;
74293;SDS011;64044;59.904;10.738;2023-08-31T04:36:20;3.78;;;1.60;;
74293;SDS011;64044;59.904;10.738;2023-08-31T04:38:48;1.77;;;1.58;;
74293;SDS011;64044;59.904;10.738;2023-08-31T04:41:14;3.47;;;1.63;;
74293;SDS011;64044;59.904;10.738;2023-08-31T04:43:40;2.67;;;1.55;;
74293;SDS011;64044;59.904;10.738;2023-08-31T04:46:06;3.28;;;1.75;;
74293;SDS011;64044;59.904;10.738;2023-08-31T04:48:32;8.88;;;1.77;;
74293;SDS011;64044;59.904;10.738;2023-08-31T04:50:58;1.73;;;1.23;;
74293;SDS011;64044;59.904;10.738;2023-08-31T04:53:24;5.00;;;1.92;;
74293;SDS011;64044;59.904;10.738;2023-08-31T04:55:50;3.13;;;1.90;;
74293;SDS011;64044;59.904;10.738;2023-08-31T04:58:15;3.10;;;1.98;;
74293;SDS011;64044;59.904;10.738;2023-08-31T05:00:41;3.08;;;1.85;;
74293;SDS011;64044;59.904;10.738;2023-08-31T05:03:09;3.65;;;2.03;;
74293;SDS011;64044;59.904;10.738;2023-08-31T05:05:35;3.10;;;1.80;;
74293;SDS011;64044;59.904;10.738;2023-08-31T05:08:00;2.60;;;2.10;;
74293;SDS011;64044;59.904;10.738;2023-08-31T05:10:27;2.00;;;1.80;;
74293;SDS011;64044;59.904;10.738;2023-08-31T05:12:53;7.25;;;2.15;;
74293;SDS011;64044;59.904;10.738;2023-08-31T05:15:19;2.30;;;1.98;;
74293;SDS011;64044;59.904;10.738;2023-08-31T05:17:44;4.40;;;1.80;;
74293;SDS011;64044;59.904;10.738;2023-08-31T05:20:10;2.75;;;1.63;;
74293;SDS011;64044;59.904;10.738;2023-08-31T05:23:01;4.45;;;2.28;;
74293;SDS011;64044;59.904;10.738;2023-08-31T05:25:27;3.63;;;2.25;;
74293;SDS011;64044;59.904;10.738;2023-08-31T05:27:52;4.00;;;2.17;;
74293;SDS011;64044;59.904;10.738;2023-08-31T05:30:18;4.38;;;2.20;;
74293;SDS011;64044;59.904;10.738;2023-08-31T05:32:44;4.15;;;1.95;;
74293;SDS011;64044;59.904;10.738;2023-08-31T05:35:09;3.22;;;1.65;;
74293;SDS011;64044;59.904;10.738;2023-08-31T05:37:35;5.68;;;1.67;;
74293;SDS011;64044;59.904;10.738;2023-08-31T05:40:02;4.40;;;2.28;;
74293;SDS011;64044;59.904;10.738;2023-08-31T05:42:31;4.88;;;2.35;;
74293;SDS011;64044;59.904;10.738;2023-08-31T05:44:57;2.25;;;1.70;;
74293;SDS011;64044;59.904;10.738;2023-08-31T05:47:23;2.55;;;1.50;;
74293;SDS011;64044;59.904;10.738;2023-08-31T05:49:48;2.17;;;1.60;;
74293;SDS011;64044;59.904;10.738;2023-08-31T05:52:14;2.20;;;1.50;;
74293;SDS011;64044;59.904;10.738;2023-08-31T05:54:40;2.53;;;1.52;;
74293;SDS011;64044;59.904;10.738;2023-08-31T05:57:05;2.58;;;1.75;;
74293;SDS011;64044;59.904;10.738;2023-08-31T05:59:31;5.57;;;1.70;;
74293;SDS011;64044;59.904;10.738;2023-08-31T06:01:57;2.63;;;1.55;;
74293;SDS011;64044;59.904;10.738;2023-08-31T06:04:22;3.10;;;1.88;;
74293;SDS011;64044;59.904;10.738;2023-08-31T06:06:48;4.05;;;1.77;;
74293;SDS011;64044;59.904;10.738;2023-08-31T06:09:17;4.97;;;1.90;;
74293;SDS011;64044;59.904;10.738;2023-08-31T06:11:42;6.43;;;2.28;;
74293;SDS011;64044;59.904;10.738;2023-08-31T06:14:08;3.33;;;1.83;;
74293;SDS011;64044;59.904;10.738;2023-08-31T06:16:33;5.10;;;1.77;;
74293;SDS011;64044;59.904;10.738;2023-08-31T06:18:59;3.33;;;1.98;;
74293;SDS011;64044;59.904;10.738;2023-08-31T06:21:25;4.15;;;2.08;;
74293;SDS011;64044;59.904;10.738;2023-08-31T06:23:50;3.58;;;2.33;;
74293;SDS011;64044;59.904;10.738;2023-08-31T06:26:16;5.43;;;2.28;;
74293;SDS011;64044;59.904;10.738;2023-08-31T06:28:42;4.93;;;2.20;;
74293;SDS011;64044;59.904;10.738;2023-08-31T06:31:07;4.97;;;1.90;;
74293;SDS011;64044;59.904;10.738;2023-08-31T06:33:34;7.60;;;2.90;;
74293;SDS011;64044;59.904;10.738;2023-08-31T06:35:59;3.55;;;2.00;;
74293;SDS011;64044;59.904;10.738;2023-08-31T06:38:25;16.55;;;3.10;;
74293;SDS011;64044;59.904;10.738;2023-08-31T06:40:50;3.35;;;1.90;;
74293;SDS011;64044;59.904;10.738;2023-08-31T06:43:19;6.72;;;2.05;;
74293;SDS011;64044;59.904;10.738;2023-08-31T06:45:45;5.90;;;1.83;;
74293;SDS011;64044;59.904;10.738;2023-08-31T06:48:11;2.05;;;1.60;;
74293;SDS011;64044;59.904;10.738;2023-08-31T06:50:37;6.55;;;1.88;;
74293;SDS011;64044;59.904;10.738;2023-08-31T06:53:02;4.68;;;2.17;;
74293;SDS011;64044;59.904;10.738;2023-08-31T06:55:28;5.25;;;2.03;;
74293;SDS011;64044;59.904;10.738;2023-08-31T06:57:54;5.53;;;2.75;;
74293;SDS011;64044;59.904;10.738;2023-08-31T07:00:19;2.72;;;1.77;;
74293;SDS011;64044;59.904;10.738;2023-08-31T07:02:45;3.60;;;2.33;;
74293;SDS011;64044;59.904;10.738;2023-08-31T07:05:11;4.07;;;2.03;;
74293;SDS011;64044;59.904;10.738;2023-08-31T07:07:37;11.50;;;1.95;;
74293;SDS011;64044;59.904;10.738;2023-08-31T07:10:02;3.13;;;1.92;;
74293;SDS011;64044;59.904;10.738;2023-08-31T07:12:30;4.07;;;2.00;;
74293;SDS011;64044;59.904;10.738;2023-08-31T07:14:56;2.40;;;1.73;;
74293;SDS011;64044;59.904;10.738;2023-08-31T07:17:22;5.97;;;1.98;;
74293;SDS011;64044;59.904;10.738;2023-08-31T07:19:47;6.70;;;2.00;;
74293;SDS011;64044;59.904;10.738;2023-08-31T07:22:13;2.70;;;2.00;;
74293;SDS011;64044;59.904;10.738;2023-08-31T07:24:39;3.88;;;2.08;;
74293;SDS011;64044;59.904;10.738;2023-08-31T07:27:05;5.45;;;1.83;;
74293;SDS011;64044;59.904;10.738;2023-08-31T07:29:30;4.07;;;1.90;;
74293;SDS011;64044;59.904;10.738;2023-08-31T07:31:56;10.25;;;2.47;;
74293;SDS011;64044;59.904;10.738;2023-08-31T07:34:23;3.03;;;2.35;;
74293;SDS011;64044;59.904;10.738;2023-08-31T07:36:49;4.57;;;2.25;;
74293;SDS011;64044;59.904;10.738;2023-08-31T07:39:15;8.25;;;2.38;;
74293;SDS011;64044;59.904;10.738;2023-08-31T07:41:43;5.25;;;2.08;;
74293;SDS011;64044;59.904;10.738;2023-08-31T07:44:09;5.35;;;2.42;;
74293;SDS011;64044;59.904;10.738;2023-08-31T07:46:35;11.57;;;2.83;;
74293;SDS011;64044;59.904;10.738;2023-08-31T07:49:00;5.45;;;1.77;;
74293;SDS011;64044;59.904;10.738;2023-08-31T07:51:27;3.47;;;2.03;;
74293;SDS011;64044;59.904;10.738;2023-08-31T07:53:53;3.67;;;1.83;;
74293;SDS011;64044;59.904;10.738;2023-08-31T07:56:19;8.43;;;1.67;;
74293;SDS011;64044;59.904;10.738;2023-08-31T07:58:45;3.95;;;2.17;;
74293;SDS011;64044;59.904;10.738;2023-08-31T08:01:10;23.90;;;2.70;;
74293;SDS011;64044;59.904;10.738;2023-08-31T08:03:36;6.25;;;2.00;;
74293;SDS011;64044;59.904;10.738;2023-08-31T08:06:02;4.43;;;2.30;;
74293;SDS011;64044;59.904;10.738;2023-08-31T08:08:28;6.35;;;3.15;;
74293;SDS011;64044;59.904;10.738;2023-08-31T08:10:54;5.05;;;2.50;;
74293;SDS011;64044;59.904;10.738;2023-08-31T08:13:20;7.65;;;2.13;;
74293;SDS011;64044;59.904;10.738;2023-08-31T08:18:36;3.30;;;2.38;;
74293;SDS011;64044;59.904;10.738;2023-08-31T08:21:02;3.35;;;2.13;;
74293;SDS011;64044;59.904;10.738;2023-08-31T08:23:28;5.30;;;2.40;;
74293;SDS011;64044;59.904;10.738;2023-08-31T08:25:54;8.48;;;2.40;;
74293;SDS011;64044;59.904;10.738;2023-08-31T08:28:19;3.72;;;2.50;;
74293;SDS011;64044;59.904;10.738;2023-08-31T08:30:45;6.43;;;2.20;;
74293;SDS011;64044;59.904;10.738;2023-08-31T08:33:11;3.53;;;2.08;;
74293;SDS011;64044;59.904;10.738;2023-08-31T08:35:37;3.30;;;2.30;;
74293;SDS011;64044;59.904;10.738;2023-08-31T08:38:03;3.50;;;2.20;;
74293;SDS011;64044;59.904;10.738;2023-08-31T08:40:30;3.33;;;2.22;;
74293;SDS011;64044;59.904;10.738;2023-08-31T08:42:57;4.50;;;1.98;;
74293;SDS011;64044;59.904;10.738;2023-08-31T08:45:25;3.85;;;1.90;;
74293;SDS011;64044;59.904;10.738;2023-08-31T08:47:55;5.35;;;2.20;;
74293;SDS011;64044;59.904;10.738;2023-08-31T08:50:23;6.88;;;1.85;;
74293;SDS011;64044;59.904;10.738;2023-08-31T08:52:49;6.18;;;2.28;;
74293;SDS011;64044;59.904;10.738;2023-08-31T08:55:16;5.85;;;1.98;;
74293;SDS011;64044;59.904;10.738;2023-08-31T08:57:43;5.07;;;1.85;;
74293;SDS011;64044;59.904;10.738;2023-08-31T09:00:10;5.25;;;2.08;;
74293;SDS011;64044;59.904;10.738;2023-08-31T09:02:36;3.40;;;2.00;;
74293;SDS011;64044;59.904;10.738;2023-08-31T09:05:01;5.43;;;2.03;;
74293;SDS011;64044;59.904;10.738;2023-08-31T09:07:29;4.93;;;2.47;;
74293;SDS011;64044;59.904;10.738;2023-08-31T09:09:55;2.45;;;1.52;;
74293;SDS011;64044;59.904;10.738;2023-08-31T09:12:22;3.67;;;1.70;;
74293;SDS011;64044;59.904;10.738;2023-08-31T09:14:58;4.15;;;1.70;;
74293;SDS011;64044;59.904;10.738;2023-08-31T09:17:25;2.85;;;1.88;;
74293;SDS011;64044;59.904;10.738;2023-08-31T09:19:58;1.80;;;1.40;;
74293;SDS011;64044;59.904;10.738;2023-08-31T09:22:25;2.67;;;1.77;;
74293;SDS011;64044;59.904;10.738;2023-08-31T09:24:51;3.33;;;1.90;;
74293;SDS011;64044;59.904;10.738;2023-08-31T09:27:17;2.75;;;1.65;;
74293;SDS011;64044;59.904;10.738;2023-08-31T09:29:45;2.97;;;2.15;;
74293;SDS011;64044;59.904;10.738;2023-08-31T09:32:18;4.35;;;1.40;;
74293;SDS011;64044;59.904;10.738;2023-08-31T09:34:44;2.90;;;1.65;;
74293;SDS011;64044;59.904;10.738;2023-08-31T09:37:10;4.82;;;2.13;;
74293;SDS011;64044;59.904;10.738;2023-08-31T09:39:36;2.75;;;2.03;;
74293;SDS011;64044;59.904;10.738;2023-08-31T09:42:04;3.22;;;2.03;;
74293;SDS011;64044;59.904;10.738;2023-08-31T09:44:30;3.22;;;1.40;;
74293;SDS011;64044;59.904;10.738;2023-08-31T09:46:56;5.63;;;2.35;;
74293;SDS011;64044;59.904;10.738;2023-08-31T09:49:23;2.47;;;1.83;;
74293;SDS011;64044;59.904;10.738;2023-08-31T09:51:50;6.57;;;4.18;;
74293;SDS011;64044;59.904;10.738;2023-08-31T09:54:18;3.75;;;2.28;;
74293;SDS011;64044;59.904;10.738;2023-08-31T09:56:46;3.03;;;1.70;;
74293;SDS011;64044;59.904;10.738;2023-08-31T09:59:13;6.13;;;1.80;;
74293;SDS011;64044;59.904;10.738;2023-08-31T10:01:40;3.58;;;1.88;;
74293;SDS011;64044;59.904;10.738;2023-08-31T10:04:07;5.53;;;1.90;;
74293;SDS011;64044;59.904;10.738;2023-08-31T10:06:36;3.90;;;2.08;;
74293;SDS011;64044;59.904;10.738;2023-08-31T10:09:04;3.55;;;2.10;;
74293;SDS011;64044;59.904;10.738;2023-08-31T10:11:30;3.20;;;1.50;;
74293;SDS011;64044;59.904;10.738;2023-08-31T10:13:57;2.28;;;1.38;;
74293;SDS011;64044;59.904;10.738;2023-08-31T10:16:24;2.60;;;1.45;;
74293;SDS011;64044;59.904;10.738;2023-08-31T10:18:52;1.65;;;1.30;;
74293;SDS011;64044;59.904;10.738;2023-08-31T10:21:19;1.90;;;1.50;;
74293;SDS011;64044;59.904;10.738;2023-08-31T10:23:45;1.67;;;1.20;;
74293;SDS011;64044;59.904;10.738;2023-08-31T10:26:12;2.72;;;1.40;;
74293;SDS011;64044;59.904;10.738;2023-08-31T10:28:52;3.25;;;1.48;;
74293;SDS011;64044;59.904;10.738;2023-08-31T10:31:18;1.67;;;1.30;;
74293;SDS011;64044;59.904;10.738;2023-08-31T10:33:58;2.10;;;1.33;;
74293;SDS011;64044;59.904;10.738;2023-08-31T10:41:41;1.98;;;1.63;;
74293;SDS011;64044;59.904;10.738;2023-08-31T10:44:19;1.90;;;1.30;;
74293;SDS011;64044;59.904;10.738;2023-08-31T10:46:47;2.67;;;1.40;;
74293;SDS011;64044;59.904;10.738;2023-08-31T10:49:14;2.15;;;1.23;;
74293;SDS011;64044;59.904;10.738;2023-08-31T10:51:46;2.28;;;1.60;;
74293;SDS011;64044;59.904;10.738;2023-08-31T10:59:21;3.95;;;1.40;;
74293;SDS011;64044;59.904;10.738;2023-08-31T11:01:57;1.85;;;1.40;;
74293;SDS011;64044;59.904;10.738;2023-08-31T11:04:28;2.25;;;1.60;;
74293;SDS011;64044;59.904;10.738;2023-08-31T11:09:42;2.92;;;1.50;;
74293;SDS011;64044;59.904;10.738;2023-08-31T11:12:09;1.88;;;1.40;;
74293;SDS011;64044;59.904;10.738;2023-08-31T11:14:35;4.35;;;1.60;;
74293;SDS011;64044;59.904;10.738;2023-08-31T11:17:01;3.63;;;1.27;;
74293;SDS011;64044;59.904;10.738;2023-08-31T11:19:29;5.07;;;1.75;;
74293;SDS011;64044;59.904;10.738;2023-08-31T11:21:56;2.05;;;1.65;;
74293;SDS011;64044;59.904;10.738;2023-08-31T11:24:21;1.88;;;1.40;;
74293;SDS011;64044;59.904;10.738;2023-08-31T11:26:49;2.33;;;1.88;;
74293;SDS011;64044;59.904;10.738;2023-08-31T11:29:15;2.72;;;1.63;;
74293;SDS011;64044;59.904;10.738;2023-08-31T11:31:41;3.05;;;1.52;;
74293;SDS011;64044;59.904;10.738;2023-08-31T11:34:07;1.83;;;1.50;;
74293;SDS011;64044;59.904;10.738;2023-08-31T11:36:38;4.65;;;1.80;;
74293;SDS011;64044;59.904;10.738;2023-08-31T11:39:05;3.10;;;1.45;;
74293;SDS011;64044;59.904;10.738;2023-08-31T11:41:32;1.48;;;1.23;;
74293;SDS011;64044;59.904;10.738;2023-08-31T11:43:58;2.40;;;1.30;;
74293;SDS011;64044;59.904;10.738;2023-08-31T11:46:24;3.40;;;1.83;;
74293;SDS011;64044;59.904;10.738;2023-08-31T11:48:50;1.52;;;1.20;;
74293;SDS011;64044;59.904;10.738;2023-08-31T11:51:17;2.10;;;1.33;;
74293;SDS011;64044;59.904;10.738;2023-08-31T11:53:44;1.85;;;1.48;;
74293;SDS011;64044;59.904;10.738;2023-08-31T11:56:10;2.60;;;1.60;;
74293;SDS011;64044;59.904;10.738;2023-08-31T11:58:40;1.80;;;1.63;;
74293;SDS011;64044;59.904;10.738;2023-08-31T12:01:11;2.65;;;1.88;;
74293;SDS011;64044;59.904;10.738;2023-08-31T12:03:44;1.77;;;1.38;;
74293;SDS011;64044;59.904;10.738;2023-08-31T12:06:10;1.85;;;1.40;;
74293;SDS011;64044;59.904;10.738;2023-08-31T12:08:36;1.90;;;1.50;;
74293;SDS011;64044;59.904;10.738;2023-08-31T12:11:03;1.40;;;1.23;;
74293;SDS011;64044;59.904;10.738;2023-08-31T12:13:31;1.58;;;1.27;;
74293;SDS011;64044;59.904;10.738;2023-08-31T12:15:57;2.15;;;1.42;;
74293;SDS011;64044;59.904;10.738;2023-08-31T12:18:23;1.67;;;0.98;;
74293;SDS011;64044;59.904;10.738;2023-08-31T12:20:50;2.15;;;1.38;;
74293;SDS011;64044;59.904;10.738;2023-08-31T12:23:17;2.08;;;1.40;;
74293;SDS011;64044;59.904;10.738;2023-08-31T12:25:49;1.85;;;1.35;;
74293;SDS011;64044;59.904;10.738;2023-08-31T12:28:16;1.85;;;1.35;;
74293;SDS011;64044;59.904;10.738;2023-08-31T12:30:46;2.40;;;1.50;;
74293;SDS011;64044;59.904;10.738;2023-08-31T12:33:17;1.10;;;0.95;;
74293;SDS011;64044;59.904;10.738;2023-08-31T12:35:43;1.60;;;1.00;;
74293;SDS011;64044;59.904;10.738;2023-08-31T12:38:09;1.85;;;1.30;;
74293;SDS011;64044;59.904;10.738;2023-08-31T12:40:35;2.72;;;1.17;;
74293;SDS011;64044;59.904;10.738;2023-08-31T12:43:01;1.83;;;1.23;;
74293;SDS011;64044;59.904;10.738;2023-08-31T12:45:27;3.08;;;1.15;;
74293;SDS011;64044;59.904;10.738;2023-08-31T12:47:53;1.40;;;1.30;;
74293;SDS011;64044;59.904;10.738;2023-08-31T12:50:18;1.30;;;1.20;;
74293;SDS011;64044;59.904;10.738;2023-08-31T12:52:45;6.68;;;1.40;;
74293;SDS011;64044;59.904;10.738;2023-08-31T12:55:11;2.78;;;1.40;;
74293;SDS011;64044;59.904;10.738;2023-08-31T12:57:41;1.63;;;1.20;;
74293;SDS011;64044;59.904;10.738;2023-08-31T13:00:07;2.35;;;1.13;;
74293;SDS011;64044;59.904;10.738;2023-08-31T13:02:38;1.35;;;1.23;;
74293;SDS011;64044;59.904;10.738;2023-08-31T13:05:04;4.22;;;1.20;;
74293;SDS011;64044;59.904;10.738;2023-08-31T13:07:31;2.10;;;1.30;;
74293;SDS011;64044;59.904;10.738;2023-08-31T13:10:00;2.45;;;1.38;;
74293;SDS011;64044;59.904;10.738;2023-08-31T13:12:28;3.13;;;1.55;;
74293;SDS011;64044;59.904;10.738;2023-08-31T13:14:55;1.77;;;1.67;;
74293;SDS011;64044;59.904;10.738;2023-08-31T13:17:21;2.05;;;1.88;;
74293;SDS011;64044;59.904;10.738;2023-08-31T13:19:51;1.15;;;0.98;;
74293;SDS011;64044;59.904;10.738;2023-08-31T13:22:21;4.15;;;1.40;;
74293;SDS011;64044;59.904;10.738;2023-08-31T13:24:47;2.58;;;1.08;;
74293;SDS011;64044;59.904;10.738;2023-08-31T13:27:13;4.50;;;1.60;;
74293;SDS011;64044;59.904;10.738;2023-08-31T13:29:39;1.85;;;1.48;;
74293;SDS011;64044;59.904;10.738;2023-08-31T13:32:05;2.33;;;1.30;;
74293;SDS011;64044;59.904;10.738;2023-08-31T13:34:32;2.45;;;1.17;;
74293;SDS011;64044;59.904;10.738;2023-08-31T13:36:58;1.67;;;1.10;;
74293;SDS011;64044;59.904;10.738;2023-08-31T13:39:25;1.58;;;1.30;;
74293;SDS011;64044;59.904;10.738;2023-08-31T13:41:51;2.38;;;1.33;;
74293;SDS011;64044;59.904;10.738;2023-08-31T13:44:18;1.50;;;1.40;;
74293;SDS011;64044;59.904;10.738;2023-08-31T13:46:45;2.38;;;1.48;;
74293;SDS011;64044;59.904;10.738;2023-08-31T13:49:12;1.27;;;1.17;;
74293;SDS011;64044;59.904;10.738;2023-08-31T13:51:38;2.78;;;1.38;;
74293;SDS011;64044;59.904;10.738;2023-08-31T13:54:04;0.93;;;0.93;;
74293;SDS011;64044;59.904;10.738;2023-08-31T13:56:30;1.17;;;1.10;;
74293;SDS011;64044;59.904;10.738;2023-08-31T13:58:56;1.20;;;1.10;;
74293;SDS011;64044;59.904;10.738;2023-08-31T14:01:22;1.25;;;1.15;;
74293;SDS011;64044;59.904;10.738;2023-08-31T14:03:48;2.78;;;1.33;;
74293;SDS011;64044;59.904;10.738;2023-08-31T14:06:14;2.63;;;1.27;;
74293;SDS011;64044;59.904;10.738;2023-08-31T14:08:40;2.22;;;1.40;;
74293;SDS011;64044;59.904;10.738;2023-08-31T14:11:06;2.22;;;1.35;;
74293;SDS011;64044;59.904;10.738;2023-08-31T14:13:31;1.73;;;1.15;;
74293;SDS011;64044;59.904;10.738;2023-08-31T14:15:57;1.98;;;1.40;;
74293;SDS011;64044;59.904;10.738;2023-08-31T14:18:23;1.48;;;1.38;;
74293;SDS011;64044;59.904;10.738;2023-08-31T14:20:51;1.65;;;1.20;;
74293;SDS011;64044;59.904;10.738;2023-08-31T14:23:17;3.17;;;1.17;;
74293;SDS011;64044;59.904;10.738;2023-08-31T14:25:42;2.72;;;1.48;;
74293;SDS011;64044;59.904;10.738;2023-08-31T14:28:08;1.52;;;1.10;;
74293;SDS011;64044;59.904;10.738;2023-08-31T14:30:36;2.38;;;1.65;;
74293;SDS011;64044;59.904;10.738;2023-08-31T14:33:02;1.60;;;1.50;;
74293;SDS011;64044;59.904;10.738;2023-08-31T14:35:28;1.75;;;1.55;;
74293;SDS011;64044;59.904;10.738;2023-08-31T14:37:54;1.80;;;1.23;;
74293;SDS011;64044;59.904;10.738;2023-08-31T14:40:20;2.65;;;1.20;;
74293;SDS011;64044;59.904;10.738;2023-08-31T14:42:45;2.47;;;1.40;;
74293;SDS011;64044;59.904;10.738;2023-08-31T14:45:11;2.10;;;1.10;;
74293;SDS011;64044;59.904;10.738;2023-08-31T14:47:37;1.45;;;1.35;;
74293;SDS011;64044;59.904;10.738;2023-08-31T14:50:03;1.92;;;1.23;;
74293;SDS011;64044;59.904;10.738;2023-08-31T14:52:32;2.10;;;1.45;;
74293;SDS011;64044;59.904;10.738;2023-08-31T14:54:57;1.23;;;1.10;;
74293;SDS011;64044;59.904;10.738;2023-08-31T14:57:24;2.17;;;1.52;;
74293;SDS011;64044;59.904;10.738;2023-08-31T14:59:50;2.22;;;1.33;;